Terminal Aerodrome Forecast
Issued by NWS Charleston, WV

Current Version | Previous Version | Graphics & Text | Print | Product List | Glossary Off
Versions: 1 2 3 4 5 6 7 8 9 10 11 12 13 14 15 16 17 18 19 20 21 22 23 24 25 26 27

000
FTUS41 KRLX 222337
TAFPKB
TAF
KPKB 222337Z 2300/2324 07005KT P6SM -RA OVC040
     FM230700 05009KT 6SM -RA OVC025
     FM230900 03006KT 5SM -RA OVC012
     FM231200 03006KT 2SM -RA OVC008
     FM231400 04009G18KT 1SM -RA OVC005
     FM231800 03010G17KT 3SM -RA OVC008
     FM232300 03009G16KT 6SM -RA OVC020=

USA.gov is the U.S. government's official web portal to all federal, state and local government web resources and services.